Aérodrome :
LOGIN :

S'inscrire | Disclaimer

   EN    FR    IT 

 










Légende :    VFR   VFR Marginal   IFR   IFR Intensif   IFR Très Intensif
Visi : 
Plafond : 
>= 8 km
>= 3000ft
5 à 8 km
1000 à 3000 ft
1500m à 5 km
500 à 1000 ft
800 à 1500m
200 à 500 ft
< 800m
< 200 ft
Symboles :   Orages  Brouillard  Fortes neiges  Fortes précipitations  Vent > 20 kt
SIGMETs :   Divers  Orages  Givrage  Turbulence  Onde Orograph.  Cendres Volcan.






- Altitude de l'aérodrome : 353 ft
- Code IATA : LIN


LIML - Milano Linate

DERNIER METAR :
  • 190420Z 33003KT 280V020 7000 -RA BKN020 07/07 Q1014 NOSIG

METARs EXPIRÉS :
  • 190350Z 35004KT 8000 -RA BKN020 07/07 Q1013 NOSIG
  • 190320Z 32003KT 280V350 2500 -RA BKN025 07/07 Q1014 NOSIG
  • 190250Z VRB02KT 7000 -RA BKN025 08/07 Q1014 NOSIG
  • 190220Z 35004KT 7000 -RA BKN025 08/07 Q1014 NOSIG
  • 190150Z 35004KT 7000 -RA BKN030 08/07 Q1014 NOSIG

TAF TAF LIML
Valide du 19 à 00h jusqu'au 20 à 00h UTC


182300Z 1900/1924 VRB05KT 6000 RA BKN025 BKN050



MET'MAP, la Météo Aéronautique d'un coup d'oeil ! - Copyright ORBIFLY Décembre 2007 - Disclaimer

ORBIFLY MET'MAP TEAM :

Programmation & Développement : Alexandra Zaïnal
Conception & Développement : Baudouin d'Aumeries
Co-Programmation & Développement : Marc-Olivier Méhu
Soutien technique & logistique : Manuel Goepfert

Contact : metmap@orbifly.com




SOURCES & CREDITS :

   NOAA